createdAt,value
2023-02-21T00:01:07.891Z,7.00
2023-02-21T00:03:53.568Z,7.00
2023-02-21T00:06:39.112Z,6.90
2023-02-21T00:09:25.988Z,6.90
2023-02-21T00:12:11.591Z,6.90
2023-02-21T00:14:57.606Z,6.90
2023-02-21T00:17:43.776Z,6.90
2023-02-21T00:20:29.388Z,6.90
2023-02-21T00:23:14.785Z,6.80
2023-02-21T00:26:02.015Z,6.80
2023-02-21T00:28:47.454Z,6.80
2023-02-21T00:31:36.966Z,6.80
2023-02-21T00:34:22.469Z,6.80
2023-02-21T00:37:08.263Z,6.80
2023-02-21T00:39:53.709Z,6.70
2023-02-21T00:42:40.702Z,6.60
2023-02-21T00:45:27.231Z,6.60
2023-02-21T00:48:12.694Z,6.60
2023-02-21T00:50:59.519Z,6.50
2023-02-21T00:53:45.169Z,6.50
2023-02-21T00:56:30.484Z,6.40
2023-02-21T00:59:17.477Z,6.40
2023-02-21T01:02:02.949Z,6.30
2023-02-21T01:04:48.409Z,6.30
2023-02-21T01:07:34.007Z,6.30
2023-02-21T01:10:19.879Z,6.30
2023-02-21T01:13:05.476Z,6.30
2023-02-21T01:15:52.457Z,6.20
2023-02-21T01:18:38.533Z,6.20
2023-02-21T01:21:24.464Z,6.20
2023-02-21T01:24:11.942Z,6.20
2023-02-21T01:26:57.387Z,6.20
2023-02-21T01:29:43.045Z,6.10
2023-02-21T01:32:29.853Z,6.10
2023-02-21T01:35:15.569Z,6.10
2023-02-21T01:38:00.932Z,6.00
2023-02-21T01:40:46.580Z,6.10
2023-02-21T01:43:34.508Z,6.00
2023-02-21T01:46:20.504Z,6.00
2023-02-21T01:49:09.944Z,6.00
2023-02-21T01:51:58.237Z,5.90
2023-02-21T01:54:46.607Z,5.80
2023-02-21T01:57:33.250Z,5.70
2023-02-21T02:00:22.973Z,5.70
2023-02-21T02:03:13.164Z,5.70
2023-02-21T02:06:02.989Z,5.60
2023-02-21T02:08:51.000Z,5.60
2023-02-21T02:11:58.864Z,5.60
2023-02-21T02:14:50.191Z,5.60
2023-02-21T02:17:34.137Z,5.50
2023-02-21T02:20:43.933Z,5.40
2023-02-21T02:23:44.256Z,5.30
2023-02-21T02:27:05.898Z,5.20
2023-02-21T02:30:11.767Z,5.20
2023-02-21T02:32:59.242Z,5.10
2023-02-21T02:35:32.382Z,5.10
2023-02-21T02:38:04.030Z,5.10
2023-02-21T02:40:36.476Z,5.10
2023-02-21T02:43:13.269Z,5.00
2023-02-21T02:45:46.361Z,5.00
2023-02-21T02:48:19.433Z,4.90
2023-02-21T02:50:52.151Z,4.90
2023-02-21T02:53:22.761Z,5.00
2023-02-21T02:55:57.289Z,5.00
2023-02-21T02:58:29.297Z,5.00
2023-02-21T03:01:09.098Z,5.00
2023-02-21T03:03:53.255Z,4.90
2023-02-21T03:06:31.683Z,4.90
2023-02-21T03:09:09.560Z,4.90
2023-02-21T03:11:44.156Z,4.90
2023-02-21T03:14:17.610Z,4.80
2023-02-21T03:16:51.379Z,4.80
2023-02-21T03:19:27.182Z,4.80
2023-02-21T03:22:00.715Z,4.80
2023-02-21T03:24:30.577Z,4.80
2023-02-21T03:27:03.668Z,4.80
2023-02-21T03:29:52.031Z,4.70
2023-02-21T03:32:25.233Z,4.70
2023-02-21T03:34:54.860Z,4.60
2023-02-21T03:37:33.163Z,4.60
2023-02-21T03:40:02.301Z,4.60
2023-02-21T03:42:33.669Z,4.60
2023-02-21T03:45:02.291Z,4.60
2023-02-21T03:47:30.516Z,4.60
2023-02-21T03:49:59.078Z,4.60
2023-02-21T03:52:28.721Z,4.70
2023-02-21T03:54:57.156Z,4.70
2023-02-21T03:57:26.900Z,4.80
2023-02-21T03:59:55.192Z,4.80
2023-02-21T04:02:24.395Z,4.70
2023-02-21T04:04:52.638Z,4.70
2023-02-21T04:07:24.043Z,4.70
2023-02-21T04:09:53.795Z,4.70
2023-02-21T04:12:29.478Z,4.60
2023-02-21T04:14:58.730Z,4.60
2023-02-21T04:17:27.395Z,4.60
2023-02-21T04:19:56.992Z,4.60
2023-02-21T04:22:26.145Z,4.50
2023-02-21T04:24:55.986Z,4.40
2023-02-21T04:27:27.040Z,4.40
2023-02-21T04:29:57.475Z,4.40
2023-02-21T04:32:25.784Z,4.40
2023-02-21T04:34:54.804Z,4.40
2023-02-21T04:37:23.421Z,4.50
2023-02-21T04:39:51.850Z,4.60
2023-02-21T04:42:21.448Z,4.60
2023-02-21T04:44:59.816Z,4.60
2023-02-21T04:47:29.668Z,4.60
2023-02-21T04:49:58.660Z,4.60
2023-02-21T04:52:26.820Z,4.60
2023-02-21T04:54:55.029Z,4.60
2023-02-21T04:57:24.883Z,4.60
2023-02-21T04:59:58.150Z,4.50
2023-02-21T05:02:26.482Z,4.50
2023-02-21T05:04:54.719Z,4.50
2023-02-21T05:07:22.818Z,4.50
2023-02-21T05:09:50.964Z,4.50
2023-02-21T05:12:19.097Z,4.50
2023-02-21T05:14:48.659Z,4.50
2023-02-21T05:17:16.857Z,4.40
2023-02-21T05:19:44.953Z,4.40
2023-02-21T05:22:13.120Z,4.40
2023-02-21T05:24:43.524Z,4.40
2023-02-21T05:27:15.601Z,4.30
2023-02-21T05:29:46.974Z,4.30
2023-02-21T05:32:17.763Z,4.20
2023-02-21T05:34:47.727Z,4.20
2023-02-21T05:37:16.352Z,4.20
2023-02-21T05:39:44.694Z,4.10
2023-02-21T05:42:12.804Z,4.10
2023-02-21T05:44:41.314Z,4.00
2023-02-21T05:47:09.515Z,3.90
2023-02-21T05:49:39.111Z,3.90
2023-02-21T05:52:07.846Z,3.90
2023-02-21T05:54:36.106Z,3.90
2023-02-21T05:57:04.676Z,3.90
2023-02-21T05:59:32.914Z,3.80
2023-02-21T06:02:01.773Z,3.70
2023-02-21T06:04:29.924Z,3.70
2023-02-21T06:06:59.474Z,3.70
2023-02-21T06:09:27.670Z,3.60
2023-02-21T06:11:58.068Z,3.60
2023-02-21T06:14:26.872Z,3.60
2023-02-21T06:16:55.074Z,3.60
2023-02-21T06:19:23.145Z,3.60
2023-02-21T06:21:51.563Z,3.60
2023-02-21T06:24:21.060Z,3.60
2023-02-21T06:26:49.206Z,3.50
2023-02-21T06:29:17.370Z,3.50
2023-02-21T06:31:45.536Z,3.50
2023-02-21T06:34:13.895Z,3.40
2023-02-21T06:36:42.030Z,3.40
2023-02-21T06:39:13.169Z,3.40
2023-02-21T06:41:42.631Z,3.30
2023-02-21T06:44:10.789Z,3.30
2023-02-21T06:46:39.086Z,3.40
2023-02-21T06:49:07.283Z,3.40
2023-02-21T06:51:36.464Z,3.40
2023-02-21T06:54:05.567Z,3.40
2023-02-21T06:56:33.773Z,3.40
2023-02-21T06:59:03.754Z,3.40
2023-02-21T07:01:32.770Z,3.40
2023-02-21T07:04:01.506Z,3.50
2023-02-21T07:06:31.348Z,3.50
2023-02-21T07:08:59.452Z,3.60
2023-02-21T07:11:27.902Z,3.60
2023-02-21T07:13:57.077Z,3.70
2023-02-21T07:16:27.287Z,3.70
2023-02-21T07:18:55.781Z,3.70
2023-02-21T07:21:24.166Z,3.80
2023-02-21T07:23:52.389Z,3.80
2023-02-21T07:26:20.576Z,3.90
2023-02-21T07:28:49.059Z,3.90
2023-02-21T07:31:19.634Z,3.90
2023-02-21T07:33:49.473Z,4.00
2023-02-21T07:36:18.153Z,4.00
2023-02-21T07:38:46.305Z,4.00
2023-02-21T07:41:15.916Z,4.00
2023-02-21T07:43:44.622Z,4.00
2023-02-21T07:46:13.728Z,4.00
2023-02-21T07:48:42.131Z,4.10
2023-02-21T07:51:11.841Z,4.10
2023-02-21T07:53:40.065Z,4.20
2023-02-21T07:56:08.641Z,4.30
2023-02-21T07:58:38.153Z,4.50
2023-02-21T08:01:07.089Z,4.60
2023-02-21T08:03:35.337Z,4.70
2023-02-21T08:06:03.625Z,4.90
2023-02-21T08:08:33.165Z,4.90
2023-02-21T08:11:01.421Z,4.90
2023-02-21T08:13:29.752Z,5.00
2023-02-21T08:15:57.879Z,5.10
2023-02-21T08:18:26.494Z,5.10
2023-02-21T08:20:56.666Z,5.20
2023-02-21T08:23:25.256Z,5.30
2023-02-21T08:25:54.795Z,5.40
2023-02-21T08:28:22.841Z,5.50
2023-02-21T08:30:50.952Z,5.70
2023-02-21T08:33:19.134Z,5.80
2023-02-21T08:35:47.405Z,5.90
2023-02-21T08:38:15.496Z,6.10
2023-02-21T08:40:43.631Z,6.20
2023-02-21T08:43:13.174Z,6.40
2023-02-21T08:45:41.418Z,6.60
2023-02-21T08:48:09.627Z,6.70
2023-02-21T08:50:37.853Z,6.90
2023-02-21T08:53:06.073Z,7.10
2023-02-21T08:55:34.269Z,7.10
2023-02-21T08:58:02.496Z,7.30
2023-02-21T09:00:32.177Z,7.40
2023-02-21T09:03:01.012Z,7.50
2023-02-21T09:05:30.997Z,7.60
2023-02-21T09:08:02.523Z,7.60
2023-02-21T09:10:34.054Z,7.70
2023-02-21T09:13:02.860Z,7.70
2023-02-21T09:15:32.875Z,7.80
2023-02-21T09:18:01.154Z,7.90
2023-02-21T09:20:29.330Z,8.00
2023-02-21T09:22:57.498Z,8.10
2023-02-21T09:25:26.910Z,8.20
2023-02-21T09:27:55.298Z,8.30
2023-02-21T09:30:27.432Z,8.40
2023-02-21T09:32:58.800Z,8.50
2023-02-21T09:35:30.438Z,8.60
2023-02-21T09:37:59.368Z,8.80
2023-02-21T09:40:35.514Z,8.90
2023-02-21T09:43:04.897Z,9.10
2023-02-21T09:45:35.528Z,9.30
2023-02-21T09:48:09.115Z,9.40
2023-02-21T09:50:44.593Z,9.50
2023-02-21T09:53:17.437Z,9.70
2023-02-21T09:55:45.992Z,9.70
2023-02-21T09:58:16.745Z,9.50
2023-02-21T10:00:46.823Z,9.70
2023-02-21T10:03:45.786Z,9.80
2023-02-21T10:06:25.154Z,9.80
2023-02-21T10:08:58.900Z,10.00
2023-02-21T10:11:36.288Z,10.00
2023-02-21T10:14:14.236Z,10.00
2023-02-21T10:16:48.932Z,10.20
2023-02-21T10:19:26.099Z,10.40
2023-02-21T10:21:55.522Z,10.20
2023-02-21T10:24:25.266Z,10.20
2023-02-21T10:27:00.827Z,10.20
2023-02-21T10:29:40.848Z,10.60
2023-02-21T10:32:10.235Z,10.90
2023-02-21T10:34:40.237Z,11.20
2023-02-21T10:37:29.349Z,10.90
2023-02-21T10:40:07.562Z,10.70
2023-02-21T10:42:41.828Z,11.10
2023-02-21T10:45:12.716Z,11.10
2023-02-21T10:47:50.923Z,11.00
2023-02-21T10:50:38.312Z,10.90
2023-02-21T10:53:07.421Z,10.90
2023-02-21T10:55:36.100Z,10.90
2023-02-21T10:58:10.048Z,11.30
2023-02-21T11:00:42.205Z,11.50
2023-02-21T11:03:21.944Z,11.40
2023-02-21T11:05:53.268Z,11.40
2023-02-21T11:08:40.663Z,11.50
2023-02-21T11:11:09.663Z,11.80
2023-02-21T11:13:38.427Z,12.00
2023-02-21T11:16:12.921Z,11.90
2023-02-21T11:18:41.165Z,11.90
2023-02-21T11:21:15.749Z,12.00
2023-02-21T11:23:50.188Z,12.20
2023-02-21T11:26:18.445Z,12.40
2023-02-21T11:28:48.523Z,12.60
2023-02-21T11:31:19.446Z,12.80
2023-02-21T11:33:56.911Z,12.80
2023-02-21T11:36:30.843Z,13.00
2023-02-21T11:39:08.423Z,13.10
2023-02-21T11:41:39.637Z,13.10
2023-02-21T11:44:30.913Z,13.40
2023-02-21T11:47:16.781Z,13.70
2023-02-21T11:49:54.494Z,13.90
2023-02-21T11:52:27.140Z,14.00
2023-02-21T11:54:55.351Z,14.00
2023-02-21T11:57:31.232Z,13.80
2023-02-21T12:00:08.853Z,13.90
2023-02-21T12:03:04.081Z,14.20
2023-02-21T12:05:43.851Z,14.40
2023-02-21T12:08:35.214Z,14.80
2023-02-21T12:11:14.662Z,14.80
2023-02-21T12:13:52.912Z,15.00
2023-02-21T12:16:33.995Z,14.30
2023-02-21T12:19:16.115Z,14.20
2023-02-21T12:22:03.118Z,14.50
2023-02-21T12:24:57.251Z,14.80
2023-02-21T12:27:35.124Z,14.60
2023-02-21T12:30:20.728Z,14.40
2023-02-21T12:32:59.204Z,14.30
2023-02-21T12:35:54.803Z,14.20
2023-02-21T12:38:32.595Z,14.10
2023-02-21T12:41:11.054Z,14.50
2023-02-21T12:43:49.505Z,14.80
2023-02-21T12:46:26.490Z,14.80
2023-02-21T12:49:01.141Z,14.70
2023-02-21T12:51:35.193Z,14.70
2023-02-21T12:54:06.385Z,14.80
2023-02-21T12:56:40.919Z,15.00
2023-02-21T12:59:16.661Z,15.30
2023-02-21T13:01:49.248Z,15.70
2023-02-21T13:04:28.588Z,15.70
2023-02-21T13:07:03.021Z,15.50
2023-02-21T13:09:35.989Z,15.40
2023-02-21T13:12:10.336Z,15.10
2023-02-21T13:14:44.751Z,15.10
2023-02-21T13:17:16.802Z,15.50
2023-02-21T13:19:48.894Z,15.80
2023-02-21T13:23:12.226Z,15.50
2023-02-21T13:26:13.951Z,15.30
2023-02-21T13:28:45.892Z,15.00
2023-02-21T13:31:21.142Z,15.00
2023-02-21T13:33:52.898Z,15.00
2023-02-21T13:36:29.635Z,14.90
2023-02-21T13:39:05.423Z,14.90
2023-02-21T13:41:37.740Z,14.90
2023-02-21T13:44:11.440Z,14.90
2023-02-21T13:47:10.615Z,15.00
2023-02-21T13:49:54.332Z,15.40
2023-02-21T13:52:53.769Z,15.90
2023-02-21T13:55:29.827Z,15.60
2023-02-21T13:58:32.667Z,15.40
2023-02-21T14:01:26.774Z,15.20
2023-02-21T14:03:58.185Z,15.30
2023-02-21T14:06:38.325Z,15.20
2023-02-21T14:09:14.165Z,15.20
2023-02-21T14:11:49.116Z,15.10
2023-02-21T14:14:25.180Z,15.20
2023-02-21T14:17:02.233Z,15.40
2023-02-21T14:19:36.920Z,15.80
2023-02-21T14:22:11.543Z,15.60
2023-02-21T14:24:42.838Z,15.60
2023-02-21T14:27:33.980Z,15.80
2023-02-21T14:30:34.566Z,16.00
2023-02-21T14:33:23.320Z,15.80
2023-02-21T14:36:00.421Z,15.70
2023-02-21T14:38:31.347Z,15.60
2023-02-21T14:41:17.496Z,15.60
2023-02-21T14:44:07.576Z,15.60
2023-02-21T14:47:08.545Z,15.70
2023-02-21T14:49:55.448Z,16.10
2023-02-21T14:52:44.124Z,16.30
2023-02-21T14:55:55.035Z,16.20
2023-02-21T14:58:42.131Z,16.40
2023-02-21T15:01:17.601Z,16.20
2023-02-21T15:03:50.034Z,16.00
2023-02-21T15:06:23.736Z,15.80
2023-02-21T15:08:53.161Z,15.70
2023-02-21T15:11:26.409Z,15.80
2023-02-21T15:14:26.532Z,16.00
2023-02-21T15:16:56.845Z,16.00
2023-02-21T15:19:29.050Z,16.00
2023-02-21T15:22:25.131Z,15.80
2023-02-21T15:25:03.134Z,15.60
2023-02-21T15:27:31.432Z,15.70
2023-02-21T15:30:08.681Z,15.80
2023-02-21T15:32:37.448Z,15.80
2023-02-21T15:35:09.090Z,15.80
2023-02-21T15:37:41.920Z,15.70
2023-02-21T15:40:20.466Z,15.60
2023-02-21T15:42:51.248Z,15.90
2023-02-21T15:45:23.759Z,16.10
2023-02-21T15:47:52.409Z,16.00
2023-02-21T15:50:30.633Z,16.00
2023-02-21T15:53:12.589Z,16.00
2023-02-21T15:55:41.331Z,16.00
2023-02-21T15:58:22.235Z,16.00
2023-02-21T16:01:06.974Z,16.10
2023-02-21T16:03:38.967Z,16.10
2023-02-21T16:06:17.457Z,16.00
2023-02-21T16:09:01.946Z,16.00
2023-02-21T16:11:41.689Z,15.90
2023-02-21T16:14:18.950Z,15.90
2023-02-21T16:16:47.744Z,15.90
2023-02-21T16:19:16.092Z,15.90
2023-02-21T16:21:44.206Z,15.90
2023-02-21T16:24:29.853Z,15.90
2023-02-21T16:27:05.743Z,15.90
2023-02-21T16:29:33.949Z,15.90
2023-02-21T16:32:02.273Z,15.80
2023-02-21T16:34:33.392Z,15.80
2023-02-21T16:37:07.747Z,15.80
2023-02-21T16:39:37.578Z,15.70
2023-02-21T16:42:05.878Z,15.70
2023-02-21T16:44:34.508Z,15.70
2023-02-21T16:47:02.796Z,15.70
2023-02-21T16:49:32.843Z,15.60
2023-02-21T16:52:01.274Z,15.60
2023-02-21T16:54:29.360Z,15.50
2023-02-21T16:56:59.097Z,15.50
2023-02-21T16:59:27.451Z,15.40
2023-02-21T17:01:55.668Z,15.40
2023-02-21T17:04:27.121Z,15.30
2023-02-21T17:06:59.079Z,15.30
2023-02-21T17:09:30.263Z,15.20
2023-02-21T17:12:00.667Z,15.10
2023-02-21T17:14:28.830Z,15.10
2023-02-21T17:16:59.682Z,15.00
2023-02-21T17:19:28.078Z,14.90
2023-02-21T17:21:58.272Z,14.80
2023-02-21T17:24:26.344Z,14.80
2023-02-21T17:26:55.039Z,14.70
2023-02-21T17:29:25.776Z,14.60
2023-02-21T17:31:54.747Z,14.50
2023-02-21T17:34:23.538Z,14.40
2023-02-21T17:36:53.438Z,14.30
2023-02-21T17:39:22.677Z,14.20
2023-02-21T17:41:51.864Z,14.00
2023-02-21T17:44:20.601Z,13.80
2023-02-21T17:46:50.916Z,13.70
2023-02-21T17:49:20.668Z,13.50
2023-02-21T17:51:49.483Z,13.40
2023-02-21T17:54:19.886Z,13.20
2023-02-21T17:56:48.756Z,13.10
2023-02-21T17:59:17.301Z,12.90
2023-02-21T18:01:45.745Z,12.90
2023-02-21T18:04:15.725Z,12.80
2023-02-21T18:06:44.016Z,12.60
2023-02-21T18:09:12.378Z,12.60
2023-02-21T18:11:40.565Z,12.50
2023-02-21T18:14:08.861Z,12.40
2023-02-21T18:16:36.953Z,12.20
2023-02-21T18:19:05.068Z,12.00
2023-02-21T18:21:34.575Z,11.80
2023-02-21T18:24:02.702Z,11.70
2023-02-21T18:26:30.825Z,11.70
2023-02-21T18:28:58.878Z,11.60
2023-02-21T18:31:27.278Z,11.50
2023-02-21T18:33:55.389Z,11.50
2023-02-21T18:36:23.920Z,11.40
2023-02-21T18:38:53.358Z,11.40
2023-02-21T18:41:22.959Z,11.40
2023-02-21T18:43:51.895Z,11.40
2023-02-21T18:46:22.250Z,11.40
2023-02-21T18:48:52.162Z,11.40
2023-02-21T18:51:21.484Z,11.40
2023-02-21T18:53:50.253Z,11.40
2023-02-21T18:56:21.199Z,11.30
2023-02-21T18:58:50.349Z,11.20
2023-02-21T19:01:21.752Z,11.00
2023-02-21T19:03:51.570Z,10.90
2023-02-21T19:06:21.688Z,10.80
2023-02-21T19:08:50.563Z,10.70
2023-02-21T19:11:20.389Z,10.60
2023-02-21T19:13:50.373Z,10.50
2023-02-21T19:16:20.617Z,10.50
2023-02-21T19:18:51.504Z,10.40
2023-02-21T19:21:19.910Z,10.30
2023-02-21T19:23:48.187Z,10.30
2023-02-21T19:26:16.309Z,10.20
2023-02-21T19:28:46.485Z,10.10
2023-02-21T19:31:18.957Z,10.10
2023-02-21T19:33:47.375Z,10.10
2023-02-21T19:36:15.593Z,10.00
2023-02-21T19:38:43.771Z,10.00
2023-02-21T19:41:11.843Z,10.00
2023-02-21T19:43:39.988Z,9.90
2023-02-21T19:46:09.550Z,9.90
2023-02-21T19:48:37.632Z,9.90
2023-02-21T19:51:06.237Z,9.80
2023-02-21T19:53:34.341Z,9.70
2023-02-21T19:56:02.989Z,9.70
2023-02-21T19:58:31.205Z,9.60
2023-02-21T20:00:59.529Z,9.60
2023-02-21T20:03:29.173Z,9.60
2023-02-21T20:05:58.509Z,9.50
2023-02-21T20:08:26.835Z,9.50
2023-02-21T20:10:55.031Z,9.40
2023-02-21T20:13:23.383Z,9.40
2023-02-21T20:15:51.510Z,9.30
2023-02-21T20:18:19.681Z,9.30
2023-02-21T20:20:49.629Z,9.30
2023-02-21T20:23:18.237Z,9.20
2023-02-21T20:25:46.510Z,9.10
2023-02-21T20:28:14.870Z,9.00
2023-02-21T20:30:43.603Z,8.90
2023-02-21T20:33:11.842Z,8.80
2023-02-21T20:35:39.988Z,8.70
2023-02-21T20:38:10.848Z,8.70
2023-02-21T20:40:39.813Z,8.60
2023-02-21T20:43:08.191Z,8.50
2023-02-21T20:45:37.288Z,8.50
2023-02-21T20:48:08.900Z,8.50
2023-02-21T20:50:37.012Z,8.40
2023-02-21T20:53:06.657Z,8.40
2023-02-21T20:55:37.379Z,8.30
2023-02-21T20:58:05.808Z,8.30
2023-02-21T21:00:37.665Z,8.30
2023-02-21T21:03:09.341Z,8.30
2023-02-21T21:05:37.567Z,8.40
2023-02-21T21:08:08.841Z,8.40
2023-02-21T21:10:38.609Z,8.40
2023-02-21T21:13:07.008Z,8.30
2023-02-21T21:15:35.185Z,8.20
2023-02-21T21:18:03.353Z,8.10
2023-02-21T21:20:33.346Z,8.10
2023-02-21T21:23:01.576Z,8.10
2023-02-21T21:25:34.680Z,8.10
2023-02-21T21:28:05.469Z,8.10
2023-02-21T21:30:33.855Z,8.20
2023-02-21T21:33:02.028Z,8.20
2023-02-21T21:35:30.879Z,8.20
2023-02-21T21:37:59.965Z,8.30
2023-02-21T21:40:28.842Z,8.40
2023-02-21T21:42:57.208Z,8.30
2023-02-21T21:45:28.390Z,8.30
2023-02-21T21:47:59.055Z,8.20
2023-02-21T21:50:27.438Z,8.10
2023-02-21T21:52:58.922Z,8.00
2023-02-21T21:55:29.591Z,7.90
2023-02-21T21:57:58.853Z,7.80
2023-02-21T22:00:30.259Z,7.70
2023-02-21T22:03:02.039Z,7.70
2023-02-21T22:05:31.899Z,7.60
2023-02-21T22:08:00.476Z,7.60
2023-02-21T22:10:29.879Z,7.60
2023-02-21T22:13:00.529Z,7.50
2023-02-21T22:15:31.094Z,7.50
2023-02-21T22:18:04.138Z,7.40
2023-02-21T22:20:32.355Z,7.40
2023-02-21T22:23:00.885Z,7.40
2023-02-21T22:25:31.957Z,7.40
2023-02-21T22:28:03.919Z,7.40
2023-02-21T22:30:33.399Z,7.30
2023-02-21T22:33:01.693Z,7.30
2023-02-21T22:35:29.812Z,7.30
2023-02-21T22:38:01.920Z,7.30
2023-02-21T22:40:34.967Z,7.30
2023-02-21T22:43:05.372Z,7.30
2023-02-21T22:45:34.905Z,7.30
2023-02-21T22:48:04.825Z,7.30
2023-02-21T22:50:36.827Z,7.20
2023-02-21T22:53:08.308Z,7.30
2023-02-21T22:55:38.085Z,7.30
2023-02-21T22:58:09.277Z,7.20
2023-02-21T23:00:39.142Z,7.20
2023-02-21T23:03:13.315Z,7.10
2023-02-21T23:05:43.615Z,7.10
2023-02-21T23:08:13.138Z,7.00
2023-02-21T23:10:41.686Z,7.00
2023-02-21T23:13:14.149Z,6.90
2023-02-21T23:15:45.128Z,6.80
2023-02-21T23:18:20.288Z,6.80
2023-02-21T23:20:52.504Z,6.90
2023-02-21T23:23:21.160Z,6.90
2023-02-21T23:25:49.580Z,6.80
2023-02-21T23:28:18.428Z,6.80
2023-02-21T23:30:49.607Z,6.80
2023-02-21T23:33:22.878Z,6.80
2023-02-21T23:35:52.307Z,6.80
2023-02-21T23:38:23.122Z,6.90
2023-02-21T23:40:56.103Z,6.90
2023-02-21T23:43:26.252Z,6.90
2023-02-21T23:45:56.540Z,6.90
2023-02-21T23:48:25.036Z,7.00
2023-02-21T23:50:57.503Z,7.00
2023-02-21T23:53:27.657Z,7.00
2023-02-21T23:55:57.701Z,7.00
2023-02-21T23:58:28.260Z,7.00
